Time Latitude Longitude Accuracy (66% radius in meters) Altitude (meters) Speed (km/hour) Bearing (degrees) Battery (%) GPS flag
06:57:27 57.204508 60.120895 11 323 0 0 61 1 delete
06:57:17 57.204508 60.120895 10 323 0 0 61 1 delete
06:57:06 57.204508 60.120895 9 323 0 0 61 1 delete
06:56:48 57.204508 60.120895 10 323 0 0 61 1 delete
06:56:36 57.204508 60.120894 10 323 0 0 61 1 delete
06:56:25 57.204509 60.120894 10 323 0 0 61 1 delete
06:56:15 57.204509 60.120894 11 323 0 0 61 1 delete
06:56:03 57.204509 60.120893 11 323 0 0 61 1 delete
06:55:52 57.204509 60.120893 12 323 0 0 61 1 delete
06:55:41 57.204508 60.120892 9 323 0 0 61 1 delete
06:55:30 57.204508 60.120892 9 323 0 0 61 1 delete
06:55:18 57.204508 60.120893 10 323 0 0 61 1 delete
06:55:06 57.204508 60.120893 10 323 0 0 61 1 delete
06:54:55 57.204507 60.120892 8 323 0 0 61 1 delete
06:54:43 57.204507 60.120893 9 323 0 0 61 1 delete
06:54:30 57.204507 60.120893 24 323 0 0 61 1 delete
06:54:18 57.204508 60.120892 12 323 0 0 61 1 delete
06:54:07 57.204509 60.120890 7 323 0 0 61 1 delete
06:53:55 57.204506 60.120891 4 323 0 0 61 1 delete
06:53:44 57.204509 60.120896 4 323 0 0 61 1 delete
06:53:30 57.204515 60.120918 4 321 0 0 61 1 delete
06:53:19 57.204502 60.120936 3 318 0 0 61 1 delete
06:53:08 57.204513 60.120887 4 321 0.75999999046326 60.700000762939 61 1 delete
06:53:07 57.204512 60.120880 4 321 2.6700000762939 69.300003051758 61 1 delete
06:53:03 57.204481 60.120698 5 323 2.460000038147 45.599998474121 61 1 delete
06:52:59 57.204436 60.120552 7 322 0.69999998807907 97.800003051758 61 1 delete
06:52:56 57.204420 60.120486 6 322 2.1300001144409 83.599998474121 61 1 delete
06:52:53 57.204435 60.120376 4 321 1.6799999475479 97.800003051758 61 1 delete
06:52:43 57.204431 60.120302 4 324 0.40000000596046 117.59999847412 61 1 delete
06:52:31 57.204445 60.120239 5 324 0 0 61 1 delete
06:52:22 57.204460 60.120190 5 326 0 0 61 1 delete
06:52:20 57.204477 60.120150 6 326 0.81000000238419 141.30000305176 61 1 delete
06:52:15 57.204529 60.120079 5 323 1.4199999570847 140.60000610352 61 1 delete
06:52:10 57.204599 60.119930 6 326 1.6599999666214 119.59999847412 61 1 delete
06:52:08 57.204662 60.119842 7 330 1.5900000333786 72.300003051758 61 1 delete
06:52:07 57.204668 60.119817 7 330 0.85000002384186 71.300003051758 61 1 delete
06:52:03 57.204742 60.119708 7 327 3.0799999237061 150.39999389648 61 1 delete
06:51:58 57.204794 60.119554 6 328 1.8999999761581 49.200000762939 61 1 delete
06:51:54 57.204741 60.119365 5 324 3.5699999332428 35.700000762939 61 1 delete
06:51:51 57.204655 60.119257 5 321 3.3900001049042 50.299999237061 61 1 delete
06:51:47 57.204586 60.119103 4 324 2.8599998950958 53.799999237061 61 1 delete
06:51:42 57.204582 60.118907 4 321 1.0800000429153 151.89999389648 61 1 delete
06:51:40 57.204602 60.118869 7 322 1.289999961853 156.10000610352 61 1 delete
06:51:34 57.204708 60.118756 7 322 1.2799999713898 112.80000305176 61 1 delete
06:51:28 57.204765 60.118652 6 321 0.56999999284744 96.099998474121 61 1 delete
06:51:27 57.204781 60.118637 7 320 0.94999998807907 95.900001525879 61 1 delete
06:51:18 57.204826 60.118480 6 319 1.1299999952316 173.10000610352 61 1 delete
06:51:17 57.204839 60.118466 6 319 0.56000000238419 173.19999694824 61 1 delete
06:51:05 57.204909 60.118393 5 317 0 0 61 1 delete
06:51:01 57.204912 60.118389 5 317 0 0 61 1 delete